sensor_id;sensor_type;location;lat;lon;timestamp;pressure;altitude;pressure_sealevel;temperature;humidity
46303;BME280;32029;51.358;5.628;2023-04-02T00:10:55;100765.22;;;10.81;100.00
46303;BME280;32029;51.358;5.628;2023-04-02T00:13:29;100767.66;;;10.75;99.84
46303;BME280;32029;51.358;5.628;2023-04-02T00:15:59;100779.03;;;10.72;100.00
46303;BME280;32029;51.358;5.628;2023-04-02T00:18:29;100771.19;;;10.69;99.41
46303;BME280;32029;51.358;5.628;2023-04-02T00:21:08;100784.91;;;10.69;100.00
46303;BME280;32029;51.358;5.628;2023-04-02T00:23:38;100790.00;;;10.72;99.86
46303;BME280;32029;51.358;5.628;2023-04-02T00:26:30;100791.41;;;10.68;98.49
46303;BME280;32029;51.358;5.628;2023-04-02T00:28:59;100785.66;;;10.63;99.24
46303;BME280;32029;51.358;5.628;2023-04-02T00:31:26;100787.81;;;10.68;98.19
46303;BME280;32029;51.358;5.628;2023-04-02T00:33:53;100800.22;;;10.64;98.02
46303;BME280;32029;51.358;5.628;2023-04-02T00:36:23;100770.22;;;10.47;98.25
46303;BME280;32029;51.358;5.628;2023-04-02T00:38:52;100802.31;;;10.62;97.99
46303;BME280;32029;51.358;5.628;2023-04-02T00:41:23;100795.69;;;10.56;97.83
46303;BME280;32029;51.358;5.628;2023-04-02T00:43:52;100806.75;;;10.63;98.01
46303;BME280;32029;51.358;5.628;2023-04-02T00:46:24;100813.94;;;10.64;98.09
46303;BME280;32029;51.358;5.628;2023-04-02T00:49:04;100818.22;;;10.66;97.73
46303;BME280;32029;51.358;5.628;2023-04-02T00:51:36;100818.59;;;10.63;97.58
46303;BME280;32029;51.358;5.628;2023-04-02T00:54:06;100824.06;;;10.63;97.60
46303;BME280;32029;51.358;5.628;2023-04-02T00:56:41;100835.91;;;10.64;97.88
46303;BME280;32029;51.358;5.628;2023-04-02T00:59:26;100832.97;;;10.65;97.38
46303;BME280;32029;51.358;5.628;2023-04-02T01:02:19;100804.00;;;10.48;97.24
46303;BME280;32029;51.358;5.628;2023-04-02T01:04:59;100835.72;;;10.65;97.01
46303;BME280;32029;51.358;5.628;2023-04-02T01:07:36;100839.22;;;10.59;96.78
46303;BME280;32029;51.358;5.628;2023-04-02T01:10:27;100853.22;;;10.64;96.97
46303;BME280;32029;51.358;5.628;2023-04-02T01:16:03;100843.47;;;10.62;97.17
46303;BME280;32029;51.358;5.628;2023-04-02T01:18:45;100859.38;;;10.66;96.71
46303;BME280;32029;51.358;5.628;2023-04-02T01:24:04;100866.66;;;10.59;96.16
46303;BME280;32029;51.358;5.628;2023-04-02T01:26:38;100861.03;;;10.52;96.33
46303;BME280;32029;51.358;5.628;2023-04-02T01:29:13;100876.00;;;10.50;96.43
46303;BME280;32029;51.358;5.628;2023-04-02T01:31:43;100881.50;;;10.50;96.56
46303;BME280;32029;51.358;5.628;2023-04-02T01:34:14;100879.97;;;10.47;96.41
46303;BME280;32029;51.358;5.628;2023-04-02T01:45:18;100902.53;;;10.35;97.09
46303;BME280;32029;51.358;5.628;2023-04-02T01:47:47;100904.59;;;10.33;96.67
46303;BME280;32029;51.358;5.628;2023-04-02T01:50:26;100906.69;;;10.30;96.74
46303;BME280;32029;51.358;5.628;2023-04-02T01:53:04;100888.59;;;10.13;96.61
46303;BME280;32029;51.358;5.628;2023-04-02T01:55:42;100921.81;;;10.26;97.15
46303;BME280;32029;51.358;5.628;2023-04-02T01:58:11;100922.81;;;10.25;96.44
46303;BME280;32029;51.358;5.628;2023-04-02T02:01:06;100930.38;;;10.23;96.71
46303;BME280;32029;51.358;5.628;2023-04-02T02:03:40;100940.63;;;10.21;96.96
46303;BME280;32029;51.358;5.628;2023-04-02T02:06:12;100949.56;;;10.23;96.32
46303;BME280;32029;51.358;5.628;2023-04-02T02:11:23;100960.03;;;10.20;95.47
46303;BME280;32029;51.358;5.628;2023-04-02T02:13:55;100927.94;;;9.97;95.79
46303;BME280;32029;51.358;5.628;2023-04-02T02:16:22;100966.72;;;10.17;95.75
46303;BME280;32029;51.358;5.628;2023-04-02T02:18:51;100969.66;;;10.16;94.66
46303;BME280;32029;51.358;5.628;2023-04-02T02:21:37;100972.59;;;10.14;94.32
46303;BME280;32029;51.358;5.628;2023-04-02T02:24:23;100969.34;;;10.11;94.95
46303;BME280;32029;51.358;5.628;2023-04-02T02:29:31;100963.38;;;10.07;94.14
46303;BME280;32029;51.358;5.628;2023-04-02T02:32:02;100981.84;;;10.13;94.34
46303;BME280;32029;51.358;5.628;2023-04-02T02:34:39;100981.84;;;10.13;94.30
46303;BME280;32029;51.358;5.628;2023-04-02T02:37:23;101002.75;;;10.14;94.52
46303;BME280;32029;51.358;5.628;2023-04-02T02:39:55;101001.56;;;10.09;93.39
46303;BME280;32029;51.358;5.628;2023-04-02T02:42:29;101005.22;;;10.01;93.62
46303;BME280;32029;51.358;5.628;2023-04-02T02:44:59;101017.38;;;9.98;93.70
46303;BME280;32029;51.358;5.628;2023-04-02T02:47:30;101017.56;;;9.97;94.14
46303;BME280;32029;51.358;5.628;2023-04-02T02:50:12;101027.88;;;9.95;94.12
46303;BME280;32029;51.358;5.628;2023-04-02T02:52:45;101016.25;;;9.85;93.93
46303;BME280;32029;51.358;5.628;2023-04-02T02:55:16;101036.75;;;9.97;94.01
46303;BME280;32029;51.358;5.628;2023-04-02T02:57:57;101043.94;;;9.98;93.91
46303;BME280;32029;51.358;5.628;2023-04-02T03:00:26;101020.03;;;9.84;93.31
46303;BME280;32029;51.358;5.628;2023-04-02T03:02:54;101061.78;;;9.94;92.46
46303;BME280;32029;51.358;5.628;2023-04-02T03:05:25;101063.34;;;9.88;92.32
46303;BME280;32029;51.358;5.628;2023-04-02T03:07:55;101060.97;;;9.85;92.85
46303;BME280;32029;51.358;5.628;2023-04-02T03:19:00;101084.31;;;9.73;92.97
46303;BME280;32029;51.358;5.628;2023-04-02T03:21:40;101073.69;;;9.70;92.94
46303;BME280;32029;51.358;5.628;2023-04-02T03:26:59;101104.34;;;9.65;92.89
46303;BME280;32029;51.358;5.628;2023-04-02T03:29:32;101093.41;;;9.57;92.74
46303;BME280;32029;51.358;5.628;2023-04-02T03:32:19;101104.03;;;9.60;92.95
46303;BME280;32029;51.358;5.628;2023-04-02T03:34:50;101113.25;;;9.59;93.49
46303;BME280;32029;51.358;5.628;2023-04-02T03:37:45;101120.63;;;9.58;93.15
46303;BME280;32029;51.358;5.628;2023-04-02T03:40:21;101130.56;;;9.60;93.72
46303;BME280;32029;51.358;5.628;2023-04-02T03:43:00;101141.34;;;9.61;93.53
46303;BME280;32029;51.358;5.628;2023-04-02T03:45:32;101158.13;;;9.58;93.20
46303;BME280;32029;51.358;5.628;2023-04-02T03:48:11;101154.72;;;9.56;93.24
46303;BME280;32029;51.358;5.628;2023-04-02T03:50:52;101160.34;;;9.54;93.25
46303;BME280;32029;51.358;5.628;2023-04-02T03:53:25;101163.09;;;9.54;93.60
46303;BME280;32029;51.358;5.628;2023-04-02T03:55:55;101162.94;;;9.56;92.85
46303;BME280;32029;51.358;5.628;2023-04-02T03:58:38;101167.38;;;9.57;93.38
46303;BME280;32029;51.358;5.628;2023-04-02T04:01:22;101170.66;;;9.52;93.07
46303;BME280;32029;51.358;5.628;2023-04-02T04:03:56;101176.97;;;9.53;92.96
46303;BME280;32029;51.358;5.628;2023-04-02T04:06:34;101177.84;;;9.53;93.39
46303;BME280;32029;51.358;5.628;2023-04-02T04:09:09;101187.59;;;9.56;94.04
46303;BME280;32029;51.358;5.628;2023-04-02T04:11:43;101198.19;;;9.59;93.37
46303;BME280;32029;51.358;5.628;2023-04-02T04:14:18;101194.78;;;9.57;93.20
46303;BME280;32029;51.358;5.628;2023-04-02T04:16:47;101200.41;;;9.55;92.98
46303;BME280;32029;51.358;5.628;2023-04-02T04:19:41;101202.31;;;9.55;93.52
46303;BME280;32029;51.358;5.628;2023-04-02T04:22:15;101213.25;;;9.55;93.30
46303;BME280;32029;51.358;5.628;2023-04-02T04:24:47;101225.06;;;9.55;93.25
46303;BME280;32029;51.358;5.628;2023-04-02T04:29:52;101232.09;;;9.58;93.39
46303;BME280;32029;51.358;5.628;2023-04-02T04:32:28;101240.31;;;9.58;93.53
46303;BME280;32029;51.358;5.628;2023-04-02T04:35:15;101256.75;;;9.58;92.23
46303;BME280;32029;51.358;5.628;2023-04-02T04:37:48;101254.53;;;9.53;91.99
46303;BME280;32029;51.358;5.628;2023-04-02T04:40:21;101224.22;;;9.30;91.46
46303;BME280;32029;51.358;5.628;2023-04-02T04:42:53;101234.97;;;9.32;91.51
46303;BME280;32029;51.358;5.628;2023-04-02T04:45:41;101258.13;;;9.46;92.41
46303;BME280;32029;51.358;5.628;2023-04-02T04:53:25;101277.13;;;9.47;91.50
46303;BME280;32029;51.358;5.628;2023-04-02T04:55:55;101280.03;;;9.46;91.57
46303;BME280;32029;51.358;5.628;2023-04-02T04:58:32;101289.28;;;9.45;91.95
46303;BME280;32029;51.358;5.628;2023-04-02T05:03:36;101294.75;;;9.37;92.11
46303;BME280;32029;51.358;5.628;2023-04-02T05:06:12;101298.38;;;9.45;92.81
46303;BME280;32029;51.358;5.628;2023-04-02T05:08:45;101308.13;;;9.48;92.70
46303;BME280;32029;51.358;5.628;2023-04-02T05:11:24;101309.13;;;9.47;92.49
46303;BME280;32029;51.358;5.628;2023-04-02T05:13:57;101285.50;;;9.29;92.66
46303;BME280;32029;51.358;5.628;2023-04-02T05:16:32;101329.03;;;9.49;92.46
46303;BME280;32029;51.358;5.628;2023-04-02T05:19:16;101329.84;;;9.41;91.38
46303;BME280;32029;51.358;5.628;2023-04-02T05:21:48;101330.69;;;9.33;91.39
46303;BME280;32029;51.358;5.628;2023-04-02T05:30:06;101349.47;;;9.20;91.30
46303;BME280;32029;51.358;5.628;2023-04-02T05:32:39;101355.28;;;9.17;91.55
46303;BME280;32029;51.358;5.628;2023-04-02T05:35:14;101358.19;;;9.16;91.95
46303;BME280;32029;51.358;5.628;2023-04-02T05:37:42;101355.25;;;9.09;91.59
46303;BME280;32029;51.358;5.628;2023-04-02T05:40:16;101376.34;;;9.17;91.10
46303;BME280;32029;51.358;5.628;2023-04-02T05:42:48;101382.28;;;9.12;91.05
46303;BME280;32029;51.358;5.628;2023-04-02T05:45:44;101374.75;;;9.06;90.98
46303;BME280;32029;51.358;5.628;2023-04-02T05:48:20;101387.72;;;9.04;91.28
46303;BME280;32029;51.358;5.628;2023-04-02T05:50:52;101396.25;;;9.01;91.45
46303;BME280;32029;51.358;5.628;2023-04-02T05:53:30;101392.84;;;8.99;90.89
46303;BME280;32029;51.358;5.628;2023-04-02T05:58:46;101407.16;;;8.93;91.33
46303;BME280;32029;51.358;5.628;2023-04-02T06:01:34;101412.81;;;8.91;90.57
46303;BME280;32029;51.358;5.628;2023-04-02T06:04:18;101411.09;;;8.90;90.86
46303;BME280;32029;51.358;5.628;2023-04-02T06:06:52;101425.47;;;8.92;90.80
46303;BME280;32029;51.358;5.628;2023-04-02T06:09:42;101426.31;;;8.93;90.65
46303;BME280;32029;51.358;5.628;2023-04-02T06:14:44;101436.59;;;8.91;89.79
46303;BME280;32029;51.358;5.628;2023-04-02T06:17:14;101445.97;;;8.88;89.62
46303;BME280;32029;51.358;5.628;2023-04-02T06:19:41;101448.16;;;8.84;90.04
46303;BME280;32029;51.358;5.628;2023-04-02T06:22:37;101457.78;;;8.89;89.77
46303;BME280;32029;51.358;5.628;2023-04-02T06:25:23;101461.53;;;8.88;89.97
46303;BME280;32029;51.358;5.628;2023-04-02T06:27:53;101472.50;;;8.88;89.50
46303;BME280;32029;51.358;5.628;2023-04-02T06:30:31;101480.03;;;8.86;90.00
46303;BME280;32029;51.358;5.628;2023-04-02T06:32:59;101478.28;;;8.84;89.72
46303;BME280;32029;51.358;5.628;2023-04-02T06:35:26;101486.50;;;8.84;90.00
46303;BME280;32029;51.358;5.628;2023-04-02T06:37:54;101498.47;;;8.83;89.50
46303;BME280;32029;51.358;5.628;2023-04-02T06:40:49;101493.31;;;8.80;89.58
46303;BME280;32029;51.358;5.628;2023-04-02T06:43:27;101505.81;;;8.83;89.60
46303;BME280;32029;51.358;5.628;2023-04-02T06:46:02;101516.91;;;8.81;89.42
46303;BME280;32029;51.358;5.628;2023-04-02T06:48:32;101518.34;;;8.86;89.93
46303;BME280;32029;51.358;5.628;2023-04-02T06:51:10;101522.47;;;8.90;89.62
46303;BME280;32029;51.358;5.628;2023-04-02T06:53:44;101527.59;;;8.93;89.29
46303;BME280;32029;51.358;5.628;2023-04-02T06:58:57;101536.16;;;8.90;89.17
46303;BME280;32029;51.358;5.628;2023-04-02T07:01:28;101534.81;;;8.94;89.37
46303;BME280;32029;51.358;5.628;2023-04-02T07:03:56;101539.25;;;8.95;88.54
46303;BME280;32029;51.358;5.628;2023-04-02T07:06:23;101551.91;;;8.96;88.40
46303;BME280;32029;51.358;5.628;2023-04-02T07:08:50;101551.91;;;8.96;87.59
46303;BME280;32029;51.358;5.628;2023-04-02T07:11:20;101554.97;;;8.93;87.81
46303;BME280;32029;51.358;5.628;2023-04-02T07:13:48;101548.28;;;8.87;87.87
46303;BME280;32029;51.358;5.628;2023-04-02T07:16:17;101570.41;;;8.94;88.21
46303;BME280;32029;51.358;5.628;2023-04-02T07:18:44;101568.09;;;8.89;87.48
46303;BME280;32029;51.358;5.628;2023-04-02T07:21:11;101584.78;;;8.96;86.95
46303;BME280;32029;51.358;5.628;2023-04-02T07:23:38;101582.34;;;8.93;86.54
46303;BME280;32029;51.358;5.628;2023-04-02T07:26:06;101596.03;;;8.93;86.67
46303;BME280;32029;51.358;5.628;2023-04-02T07:28:34;101566.81;;;8.75;86.70
46303;BME280;32029;51.358;5.628;2023-04-02T07:31:00;101582.75;;;8.80;86.46
46303;BME280;32029;51.358;5.628;2023-04-02T07:33:29;101613.00;;;8.96;86.60
46303;BME280;32029;51.358;5.628;2023-04-02T07:35:57;101615.72;;;8.96;85.13
46303;BME280;32029;51.358;5.628;2023-04-02T07:38:24;101623.56;;;8.91;84.83
46303;BME280;32029;51.358;5.628;2023-04-02T07:40:51;101631.22;;;8.88;85.44
46303;BME280;32029;51.358;5.628;2023-04-02T07:43:17;101589.25;;;8.61;84.85
46303;BME280;32029;51.358;5.628;2023-04-02T07:45:44;101638.88;;;8.84;84.61
46303;BME280;32029;51.358;5.628;2023-04-02T07:48:12;101633.72;;;8.81;85.22
46303;BME280;32029;51.358;5.628;2023-04-02T07:50:39;101636.72;;;8.88;85.09
46303;BME280;32029;51.358;5.628;2023-04-02T07:53:06;101629.81;;;8.83;85.59
46303;BME280;32029;51.358;5.628;2023-04-02T07:55:34;101652.19;;;8.97;85.21
46303;BME280;32029;51.358;5.628;2023-04-02T07:58:00;101659.41;;;8.98;84.67
46303;BME280;32029;51.358;5.628;2023-04-02T08:00:27;101655.31;;;9.02;84.70
46303;BME280;32029;51.358;5.628;2023-04-02T08:02:54;101660.81;;;9.02;83.91
46303;BME280;32029;51.358;5.628;2023-04-02T08:05:21;101662.81;;;9.00;83.48
46303;BME280;32029;51.358;5.628;2023-04-02T08:07:55;101652.09;;;8.89;83.08
46303;BME280;32029;51.358;5.628;2023-04-02T08:10:22;101676.97;;;8.95;82.61
46303;BME280;32029;51.358;5.628;2023-04-02T08:12:49;101685.38;;;8.94;83.21
46303;BME280;32029;51.358;5.628;2023-04-02T08:15:16;101680.56;;;8.96;82.07
46303;BME280;32029;51.358;5.628;2023-04-02T08:17:44;101667.91;;;8.77;81.67
46303;BME280;32029;51.358;5.628;2023-04-02T08:20:19;101698.63;;;8.89;82.07
46303;BME280;32029;51.358;5.628;2023-04-02T08:22:47;101705.13;;;8.88;81.28
46303;BME280;32029;51.358;5.628;2023-04-02T08:25:14;101696.22;;;8.86;82.04
46303;BME280;32029;51.358;5.628;2023-04-02T08:27:41;101707.25;;;8.94;81.80
46303;BME280;32029;51.358;5.628;2023-04-02T08:30:09;101719.06;;;8.94;81.43
46303;BME280;32029;51.358;5.628;2023-04-02T08:32:38;101694.41;;;8.76;81.53
46303;BME280;32029;51.358;5.628;2023-04-02T08:35:07;101728.81;;;8.97;82.39
46303;BME280;32029;51.358;5.628;2023-04-02T08:37:35;101733.69;;;9.03;82.30
46303;BME280;32029;51.358;5.628;2023-04-02T08:40:03;101738.00;;;9.05;81.74
46303;BME280;32029;51.358;5.628;2023-04-02T08:42:36;101740.28;;;9.10;82.22
46303;BME280;32029;51.358;5.628;2023-04-02T08:47:55;101760.22;;;9.20;80.46
46303;BME280;32029;51.358;5.628;2023-04-02T08:50:33;101765.56;;;9.22;80.28
46303;BME280;32029;51.358;5.628;2023-04-02T08:53:03;101731.69;;;9.05;80.80
46303;BME280;32029;51.358;5.628;2023-04-02T08:55:39;101755.44;;;9.22;80.49
46303;BME280;32029;51.358;5.628;2023-04-02T09:00:56;101761.38;;;9.36;80.21
46303;BME280;32029;51.358;5.628;2023-04-02T09:03:29;101786.06;;;9.53;79.42
46303;BME280;32029;51.358;5.628;2023-04-02T09:06:01;101789.34;;;9.57;79.14
46303;BME280;32029;51.358;5.628;2023-04-02T09:08:30;101771.13;;;9.48;79.75
46303;BME280;32029;51.358;5.628;2023-04-02T09:11:05;101763.75;;;9.48;79.77
46303;BME280;32029;51.358;5.628;2023-04-02T09:13:35;101773.28;;;9.62;79.23
46303;BME280;32029;51.358;5.628;2023-04-02T09:16:08;101791.06;;;9.76;80.37
46303;BME280;32029;51.358;5.628;2023-04-02T09:18:36;101797.94;;;9.80;79.39
46303;BME280;32029;51.358;5.628;2023-04-02T09:23:48;101808.19;;;9.96;77.97
46303;BME280;32029;51.358;5.628;2023-04-02T09:26:22;101823.44;;;9.98;77.83
46303;BME280;32029;51.358;5.628;2023-04-02T09:28:50;101826.88;;;10.00;78.20
46303;BME280;32029;51.358;5.628;2023-04-02T09:31:21;101830.16;;;10.04;77.28
46303;BME280;32029;51.358;5.628;2023-04-02T09:33:50;101841.13;;;10.04;77.12
46303;BME280;32029;51.358;5.628;2023-04-02T09:36:37;101835.28;;;9.99;77.21
46303;BME280;32029;51.358;5.628;2023-04-02T09:39:25;101852.91;;;9.96;78.01
46303;BME280;32029;51.358;5.628;2023-04-02T09:41:52;101860.66;;;10.01;77.59
46303;BME280;32029;51.358;5.628;2023-04-02T09:44:25;101850.84;;;9.98;77.36
46303;BME280;32029;51.358;5.628;2023-04-02T09:47:00;101855.09;;;9.93;76.61
46303;BME280;32029;51.358;5.628;2023-04-02T09:49:38;101873.81;;;9.97;76.53
46303;BME280;32029;51.358;5.628;2023-04-02T09:52:06;101863.00;;;9.96;77.40
46303;BME280;32029;51.358;5.628;2023-04-02T09:54:34;101873.81;;;9.97;77.45
46303;BME280;32029;51.358;5.628;2023-04-02T09:57:21;101881.56;;;10.02;77.77
46303;BME280;32029;51.358;5.628;2023-04-02T10:02:33;101882.97;;;10.06;76.65
46303;BME280;32029;51.358;5.628;2023-04-02T10:05:03;101891.44;;;10.13;76.72
46303;BME280;32029;51.358;5.628;2023-04-02T10:07:38;101895.19;;;10.12;76.71
46303;BME280;32029;51.358;5.628;2023-04-02T10:10:26;101920.56;;;10.14;75.87
46303;BME280;32029;51.358;5.628;2023-04-02T10:13:16;101899.50;;;10.14;76.57
46303;BME280;32029;51.358;5.628;2023-04-02T10:15:47;101906.22;;;10.20;76.57
46303;BME280;32029;51.358;5.628;2023-04-02T10:18:51;101902.31;;;10.22;76.93
46303;BME280;32029;51.358;5.628;2023-04-02T10:21:26;101919.00;;;10.29;77.00
46303;BME280;32029;51.358;5.628;2023-04-02T10:23:54;101917.31;;;10.28;76.95
46303;BME280;32029;51.358;5.628;2023-04-02T10:32:36;101934.31;;;10.32;76.84
46303;BME280;32029;51.358;5.628;2023-04-02T10:40:59;101933.69;;;10.38;75.66
46303;BME280;32029;51.358;5.628;2023-04-02T10:43:53;101941.13;;;10.45;76.80
46303;BME280;32029;51.358;5.628;2023-04-02T10:49:27;101951.66;;;10.58;75.38
46303;BME280;32029;51.358;5.628;2023-04-02T10:55:24;101971.25;;;10.63;74.94
46303;BME280;32029;51.358;5.628;2023-04-02T10:57:53;101970.09;;;10.66;74.85
46303;BME280;32029;51.358;5.628;2023-04-02T11:00:33;101969.06;;;10.67;74.44
46303;BME280;32029;51.358;5.628;2023-04-02T11:03:09;101972.53;;;10.69;75.91
46303;BME280;32029;51.358;5.628;2023-04-02T11:05:48;101977.84;;;10.70;74.48
46303;BME280;32029;51.358;5.628;2023-04-02T11:08:23;101987.09;;;10.69;74.53
46303;BME280;32029;51.358;5.628;2023-04-02T11:10:58;101976.44;;;10.66;75.38
46303;BME280;32029;51.358;5.628;2023-04-02T11:13:45;102002.06;;;10.75;74.52
46303;BME280;32029;51.358;5.628;2023-04-02T11:16:14;101993.75;;;10.67;74.41
46303;BME280;32029;51.358;5.628;2023-04-02T11:18:41;101999.47;;;10.73;74.38
46303;BME280;32029;51.358;5.628;2023-04-02T11:21:43;101997.09;;;10.78;75.68
46303;BME280;32029;51.358;5.628;2023-04-02T11:24:30;102003.38;;;10.89;75.77
46303;BME280;32029;51.358;5.628;2023-04-02T11:29:41;102018.88;;;10.98;73.93
46303;BME280;32029;51.358;5.628;2023-04-02T11:32:31;102024.06;;;11.01;73.28
46303;BME280;32029;51.358;5.628;2023-04-02T11:35:02;101998.19;;;10.86;73.58
46303;BME280;32029;51.358;5.628;2023-04-02T11:37:48;102025.75;;;11.02;73.55
46303;BME280;32029;51.358;5.628;2023-04-02T11:42:51;102032.97;;;11.03;73.63
46303;BME280;32029;51.358;5.628;2023-04-02T11:50:45;102044.56;;;11.15;73.74
46303;BME280;32029;51.358;5.628;2023-04-02T11:55:43;102037.72;;;11.19;73.88
46303;BME280;32029;51.358;5.628;2023-04-02T12:01:19;102056.47;;;11.23;73.25
46303;BME280;32029;51.358;5.628;2023-04-02T12:09:45;102063.75;;;11.33;73.65
46303;BME280;32029;51.358;5.628;2023-04-02T12:12:26;102073.06;;;11.40;72.77
46303;BME280;32029;51.358;5.628;2023-04-02T12:14:55;102052.38;;;11.27;72.02
46303;BME280;32029;51.358;5.628;2023-04-02T12:17:34;102085.78;;;11.41;72.67
46303;BME280;32029;51.358;5.628;2023-04-02T12:22:38;102091.28;;;11.41;71.78
46303;BME280;32029;51.358;5.628;2023-04-02T12:30:40;102099.16;;;11.36;70.81
46303;BME280;32029;51.358;5.628;2023-04-02T12:35:47;102106.53;;;11.35;70.99
46303;BME280;32029;51.358;5.628;2023-04-02T12:38:24;102116.31;;;11.38;70.88
46303;BME280;32029;51.358;5.628;2023-04-02T12:40:55;102120.78;;;11.39;71.67
46303;BME280;32029;51.358;5.628;2023-04-02T12:43:33;102120.47;;;11.42;71.16
46303;BME280;32029;51.358;5.628;2023-04-02T12:46:03;102113.09;;;11.42;70.50
46303;BME280;32029;51.358;5.628;2023-04-02T12:48:33;102116.88;;;11.41;70.42
46303;BME280;32029;51.358;5.628;2023-04-02T12:51:01;102120.34;;;11.43;70.94
46303;BME280;32029;51.358;5.628;2023-04-02T12:53:35;102116.91;;;11.49;70.47
46303;BME280;32029;51.358;5.628;2023-04-02T12:56:03;102110.03;;;11.45;70.19
46303;BME280;32029;51.358;5.628;2023-04-02T12:58:39;102122.28;;;11.51;70.72
46303;BME280;32029;51.358;5.628;2023-04-02T13:03:39;102097.09;;;11.38;70.14
46303;BME280;32029;51.358;5.628;2023-04-02T13:06:22;102109.16;;;11.45;69.77
46303;BME280;32029;51.358;5.628;2023-04-02T13:08:49;102121.09;;;11.62;69.39
46303;BME280;32029;51.358;5.628;2023-04-02T13:11:16;102105.06;;;11.49;69.13
46303;BME280;32029;51.358;5.628;2023-04-02T13:13:44;102129.91;;;11.65;69.13
46303;BME280;32029;51.358;5.628;2023-04-02T13:18:46;102133.94;;;11.79;68.67
46303;BME280;32029;51.358;5.628;2023-04-02T13:23:46;102142.94;;;11.89;68.27
46303;BME280;32029;51.358;5.628;2023-04-02T13:26:21;102145.91;;;11.96;68.04
46303;BME280;32029;51.358;5.628;2023-04-02T13:28:56;102150.09;;;12.08;68.31
46303;BME280;32029;51.358;5.628;2023-04-02T13:31:22;102128.09;;;12.08;67.03
46303;BME280;32029;51.358;5.628;2023-04-02T13:33:49;102149.19;;;12.34;66.30
46303;BME280;32029;51.358;5.628;2023-04-02T13:36:16;102147.31;;;12.42;66.13
46303;BME280;32029;51.358;5.628;2023-04-02T13:38:43;102145.75;;;12.48;66.28
46303;BME280;32029;51.358;5.628;2023-04-02T13:41:19;102141.50;;;12.62;66.13
46303;BME280;32029;51.358;5.628;2023-04-02T13:43:49;102148.41;;;12.74;66.32
46303;BME280;32029;51.358;5.628;2023-04-02T13:46:28;102122.41;;;12.68;65.69
46303;BME280;32029;51.358;5.628;2023-04-02T13:48:56;102154.78;;;12.91;65.16
46303;BME280;32029;51.358;5.628;2023-04-02T13:51:26;102149.97;;;12.93;65.43
46303;BME280;32029;51.358;5.628;2023-04-02T13:53:56;102157.22;;;12.94;65.40
46303;BME280;32029;51.358;5.628;2023-04-02T13:56:23;102164.97;;;12.98;64.77
46303;BME280;32029;51.358;5.628;2023-04-02T13:58:50;102141.72;;;12.93;64.69
46303;BME280;32029;51.358;5.628;2023-04-02T14:01:18;102169.47;;;13.08;64.04
46303;BME280;32029;51.358;5.628;2023-04-02T14:03:46;102166.84;;;13.06;63.75
46303;BME280;32029;51.358;5.628;2023-04-02T14:09:25;102180.31;;;13.09;64.28
46303;BME280;32029;51.358;5.628;2023-04-02T14:12:15;102175.50;;;13.11;64.76
46303;BME280;32029;51.358;5.628;2023-04-02T14:34:15;102185.50;;;13.29;63.75
46303;BME280;32029;51.358;5.628;2023-04-02T14:36:53;102195.84;;;13.35;64.14
46303;BME280;32029;51.358;5.628;2023-04-02T14:39:27;102190.69;;;13.40;63.89
46303;BME280;32029;51.358;5.628;2023-04-02T14:42:12;102201.88;;;13.46;63.57
46303;BME280;32029;51.358;5.628;2023-04-02T14:44:51;102198.75;;;13.49;63.19
46303;BME280;32029;51.358;5.628;2023-04-02T14:47:41;102172.25;;;13.32;63.19
46303;BME280;32029;51.358;5.628;2023-04-02T14:50:16;102199.81;;;13.40;63.28
46303;BME280;32029;51.358;5.628;2023-04-02T14:52:49;102200.66;;;13.33;63.36
46303;BME280;32029;51.358;5.628;2023-04-02T14:55:35;102187.06;;;13.23;63.77
46303;BME280;32029;51.358;5.628;2023-04-02T14:58:09;102204.97;;;13.35;63.90
46303;BME280;32029;51.358;5.628;2023-04-02T15:01:02;102206.16;;;13.49;63.34
46303;BME280;32029;51.358;5.628;2023-04-02T15:03:35;102197.88;;;13.57;62.92
46303;BME280;32029;51.358;5.628;2023-04-02T15:06:10;102208.41;;;13.70;62.38
46303;BME280;32029;51.358;5.628;2023-04-02T15:08:42;102209.25;;;13.79;62.32
46303;BME280;32029;51.358;5.628;2023-04-02T15:11:16;102215.09;;;13.84;61.40
46303;BME280;32029;51.358;5.628;2023-04-02T15:13:58;102210.94;;;13.88;62.50
46303;BME280;32029;51.358;5.628;2023-04-02T15:16:26;102207.34;;;13.87;61.75
46303;BME280;32029;51.358;5.628;2023-04-02T15:18:58;102214.41;;;13.90;61.32
46303;BME280;32029;51.358;5.628;2023-04-02T15:21:39;102222.19;;;13.86;60.65
46303;BME280;32029;51.358;5.628;2023-04-02T15:43:23;102234.75;;;13.72;59.58
46303;BME280;32029;51.358;5.628;2023-04-02T16:01:00;102233.50;;;14.08;59.38
46303;BME280;32029;51.358;5.628;2023-04-02T16:03:46;102243.31;;;14.18;60.83
46303;BME280;32029;51.358;5.628;2023-04-02T16:06:33;102240.50;;;14.35;60.98
46303;BME280;32029;51.358;5.628;2023-04-02T16:11:58;102246.56;;;14.78;59.55
46303;BME280;32029;51.358;5.628;2023-04-02T16:14:29;102244.75;;;14.93;57.80
46303;BME280;32029;51.358;5.628;2023-04-02T16:17:03;102247.78;;;15.06;58.04
46303;BME280;32029;51.358;5.628;2023-04-02T16:19:45;102266.03;;;15.15;58.46
46303;BME280;32029;51.358;5.628;2023-04-02T16:22:25;102257.03;;;15.13;58.44
46303;BME280;32029;51.358;5.628;2023-04-02T16:25:09;102260.19;;;15.10;57.89
46303;BME280;32029;51.358;5.628;2023-04-02T16:28:01;102268.44;;;15.18;57.57
46303;BME280;32029;51.358;5.628;2023-04-02T16:30:43;102268.88;;;15.30;57.02
46303;BME280;32029;51.358;5.628;2023-04-02T16:33:35;102269.97;;;15.44;56.50
46303;BME280;32029;51.358;5.628;2023-04-02T16:41:51;102278.63;;;15.87;55.20
46303;BME280;32029;51.358;5.628;2023-04-02T17:01:57;102301.34;;;16.94;52.86
46303;BME280;32029;51.358;5.628;2023-04-02T17:10:34;102310.34;;;16.66;52.50
46303;BME280;32029;51.358;5.628;2023-04-02T17:13:17;102319.97;;;16.41;52.81
46303;BME280;32029;51.358;5.628;2023-04-02T17:15:49;102335.13;;;16.15;53.03